XNO815 EGGD-LPFR
Flight info
| Callsign | XNO815 |
|---|---|
| Flight time | 2h 14m |
| Altitude | 36000 |
| Route | EXMOR N92 DAWLY DCT BHD DCT SALCO DCT IBISU/N0442F370 DCT BALDA DCT ABUPI DCT ORVED/N0442F390 DCT UPULO DCT ALAGU |
| Aircraft | A20N/M-SDE2E3FGHIRWXY/LB1 |
Departure
| Time | 2026-05-07 18:50 |
|---|---|
| Airport | Bristol Airport (EGGD) |
Arrival
| Time | 2026-05-07 21:05 |
|---|---|
| Airport | Faro - Gago Coutinho International Airport (LPFR) |
| Time | Latitude | Longitude | Altitude | Speed | Heading |
|---|---|---|---|---|---|
| 2026-05-07 18:27 | 51.38556 | -2.71083 | 623 ft | 0 kts | 356° |
| 2026-05-07 18:44 | 51.38551 | -2.71082 | 626 ft | 1 kts | 356° |
| 2026-05-07 18:44 | 51.38538 | -2.71081 | 615 ft | 2 kts | 356° |
| 2026-05-07 18:44 | 51.38522 | -2.71079 | 619 ft | 2 kts | 356° |
| 2026-05-07 18:44 | 51.38506 | -2.71079 | 618 ft | 2 kts | 7° |
| 2026-05-07 18:45 | 51.38490 | -2.71084 | 625 ft | 2 kts | 21° |
| 2026-05-07 18:45 | 51.38476 | -2.71095 | 624 ft | 2 kts | 36° |
| 2026-05-07 18:45 | 51.38464 | -2.71112 | 621 ft | 2 kts | 55° |
| 2026-05-07 18:45 | 51.38456 | -2.71135 | 625 ft | 2 kts | 78° |
| 2026-05-07 18:46 | 51.38455 | -2.71142 | 626 ft | 0 kts | 85° |
| 2026-05-07 18:46 | 51.38457 | -2.71115 | 618 ft | 11 kts | 85° |
| 2026-05-07 18:46 | 51.38466 | -2.70900 | 612 ft | 17 kts | 83° |
| 2026-05-07 18:47 | 51.38476 | -2.70646 | 612 ft | 9 kts | 86° |
| 2026-05-07 18:47 | 51.38476 | -2.70554 | 611 ft | 15 kts | 100° |
| 2026-05-07 18:47 | 51.38447 | -2.70524 | 614 ft | 1 kts | 154° |
| 2026-05-07 18:47 | 51.38431 | -2.70513 | 619 ft | 5 kts | 158° |
| 2026-05-07 18:48 | 51.38406 | -2.70501 | 619 ft | 7 kts | 165° |
| 2026-05-07 18:48 | 51.38355 | -2.70487 | 612 ft | 8 kts | 185° |
| 2026-05-07 18:48 | 51.38321 | -2.70561 | 612 ft | 10 kts | 261° |
| 2026-05-07 18:48 | 51.38320 | -2.70578 | 616 ft | 0 kts | 263° |
| 2026-05-07 18:49 | 51.38318 | -2.70598 | 611 ft | 4 kts | 264° |
| 2026-05-07 18:49 | 51.38305 | -2.70956 | 619 ft | 72 kts | 266° |
| 2026-05-07 18:49 | 51.38260 | -2.72127 | 616 ft | 138 kts | 266° |
| 2026-05-07 18:50 | 51.38190 | -2.73816 | 1157 ft | 149 kts | 266° |
| 2026-05-07 18:50 | 51.38141 | -2.75524 | 1895 ft | 158 kts | 264° |
| 2026-05-07 18:50 | 51.38094 | -2.77315 | 2577 ft | 165 kts | 264° |
| 2026-05-07 18:50 | 51.38032 | -2.79238 | 2990 ft | 184 kts | 264° |
| 2026-05-07 18:51 | 51.37956 | -2.81416 | 3443 ft | 203 kts | 264° |
| 2026-05-07 18:51 | 51.37871 | -2.83782 | 3885 ft | 222 kts | 264° |
| 2026-05-07 18:51 | 51.37771 | -2.86364 | 4322 ft | 241 kts | 262° |
| 2026-05-07 18:51 | 51.37208 | -2.88845 | 5107 ft | 238 kts | 232° |
| 2026-05-07 18:52 | 51.36061 | -2.90756 | 5867 ft | 241 kts | 219° |
| 2026-05-07 18:52 | 51.34734 | -2.92430 | 6380 ft | 245 kts | 216° |
| 2026-05-07 18:52 | 51.33365 | -2.94129 | 6108 ft | 257 kts | 217° |
| 2026-05-07 18:52 | 51.31954 | -2.95986 | 5996 ft | 263 kts | 219° |
| 2026-05-07 18:53 | 51.30569 | -2.97909 | 6002 ft | 266 kts | 220° |
| 2026-05-07 18:53 | 51.29306 | -3.00084 | 6389 ft | 270 kts | 232° |
| 2026-05-07 18:53 | 51.28353 | -3.02639 | 7256 ft | 269 kts | 243° |
| 2026-05-07 18:53 | 51.27534 | -3.05318 | 8261 ft | 268 kts | 242° |
| 2026-05-07 18:54 | 51.26692 | -3.08002 | 9108 ft | 272 kts | 242° |
| 2026-05-07 18:54 | 51.25733 | -3.10598 | 9971 ft | 273 kts | 227° |
| 2026-05-07 18:54 | 51.24201 | -3.12431 | 10500 ft | 286 kts | 204° |
| 2026-05-07 18:54 | 51.22207 | -3.13328 | 10731 ft | 310 kts | 191° |
| 2026-05-07 18:55 | 51.20006 | -3.13874 | 11107 ft | 326 kts | 188° |
| 2026-05-07 18:55 | 51.17746 | -3.14362 | 11826 ft | 330 kts | 189° |
| 2026-05-07 18:55 | 51.15456 | -3.14895 | 12544 ft | 335 kts | 189° |
| 2026-05-07 18:55 | 51.13140 | -3.15482 | 13187 ft | 343 kts | 190° |
| 2026-05-07 18:56 | 51.10719 | -3.16131 | 13392 ft | 362 kts | 191° |
| 2026-05-07 18:56 | 51.08176 | -3.16831 | 13604 ft | 379 kts | 191° |
| 2026-05-07 18:56 | 51.05604 | -3.17542 | 13483 ft | 372 kts | 191° |
| 2026-05-07 18:56 | 51.02955 | -3.18277 | 13451 ft | 394 kts | 191° |
| 2026-05-07 18:57 | 51.00208 | -3.19036 | 13917 ft | 403 kts | 191° |
| 2026-05-07 18:57 | 50.97432 | -3.19799 | 14520 ft | 406 kts | 191° |
| 2026-05-07 18:57 | 50.94644 | -3.20565 | 15111 ft | 408 kts | 191° |
| 2026-05-07 18:57 | 50.91833 | -3.21336 | 15691 ft | 411 kts | 191° |
| 2026-05-07 18:58 | 50.89007 | -3.22111 | 16266 ft | 413 kts | 191° |
| 2026-05-07 18:58 | 50.86198 | -3.22880 | 17276 ft | 403 kts | 191° |
| 2026-05-07 18:58 | 50.83497 | -3.23617 | 18610 ft | 386 kts | 191° |
| 2026-05-07 18:58 | 50.80910 | -3.24322 | 19767 ft | 371 kts | 191° |
| 2026-05-07 18:59 | 50.78359 | -3.25019 | 20435 ft | 373 kts | 191° |
| 2026-05-07 18:59 | 50.75789 | -3.25723 | 20949 ft | 376 kts | 191° |
| 2026-05-07 18:59 | 50.73203 | -3.26430 | 21499 ft | 379 kts | 191° |
| 2026-05-07 18:59 | 50.70596 | -3.27140 | 22045 ft | 381 kts | 191° |
| 2026-05-07 19:00 | 50.67978 | -3.27853 | 22588 ft | 384 kts | 191° |
| 2026-05-07 19:00 | 50.65336 | -3.28570 | 23116 ft | 386 kts | 191° |
| 2026-05-07 19:00 | 50.62673 | -3.29292 | 23622 ft | 389 kts | 191° |
| 2026-05-07 19:00 | 50.59994 | -3.30018 | 24056 ft | 392 kts | 191° |
| 2026-05-07 19:01 | 50.57301 | -3.30746 | 24488 ft | 394 kts | 191° |
| 2026-05-07 19:01 | 50.54592 | -3.31479 | 24905 ft | 396 kts | 191° |
| 2026-05-07 19:01 | 50.51868 | -3.32214 | 25323 ft | 398 kts | 191° |
| 2026-05-07 19:01 | 50.49166 | -3.32943 | 25725 ft | 401 kts | 191° |
| 2026-05-07 19:02 | 50.46411 | -3.33685 | 26128 ft | 403 kts | 191° |
| 2026-05-07 19:02 | 50.43639 | -3.34431 | 26508 ft | 405 kts | 191° |
| 2026-05-07 19:02 | 50.40856 | -3.35179 | 26887 ft | 407 kts | 191° |
| 2026-05-07 19:02 | 50.38054 | -3.35931 | 27264 ft | 409 kts | 191° |
| 2026-05-07 19:03 | 50.35241 | -3.36685 | 27623 ft | 411 kts | 191° |
| 2026-05-07 19:03 | 50.32411 | -3.37442 | 27981 ft | 413 kts | 191° |
| 2026-05-07 19:03 | 50.29567 | -3.38203 | 28328 ft | 415 kts | 191° |
| 2026-05-07 19:03 | 50.26708 | -3.38967 | 28646 ft | 417 kts | 191° |
| 2026-05-07 19:04 | 50.23837 | -3.39733 | 28968 ft | 419 kts | 191° |
| 2026-05-07 19:04 | 50.20953 | -3.40501 | 29280 ft | 421 kts | 191° |
| 2026-05-07 19:04 | 50.18075 | -3.41267 | 29570 ft | 423 kts | 191° |
| 2026-05-07 19:04 | 50.15147 | -3.42045 | 29879 ft | 425 kts | 191° |
| 2026-05-07 19:05 | 50.12224 | -3.42820 | 30173 ft | 427 kts | 191° |
| 2026-05-07 19:05 | 50.09291 | -3.43597 | 30439 ft | 428 kts | 191° |
| 2026-05-07 19:05 | 50.06351 | -3.44376 | 30704 ft | 430 kts | 191° |
| 2026-05-07 19:05 | 50.03395 | -3.45158 | 30971 ft | 432 kts | 191° |
| 2026-05-07 19:06 | 50.00432 | -3.45941 | 31273 ft | 432 kts | 191° |
| 2026-05-07 19:06 | 49.94518 | -3.47499 | 31914 ft | 430 kts | 191° |
| 2026-05-07 19:06 | 49.91565 | -3.48276 | 31986 ft | 429 kts | 191° |
| 2026-05-07 19:07 | 49.85698 | -3.49816 | 31993 ft | 428 kts | 191° |
| 2026-05-07 19:07 | 49.79870 | -3.51344 | 31990 ft | 428 kts | 191° |
| 2026-05-07 19:08 | 49.73997 | -3.52910 | 31990 ft | 427 kts | 193° |
| 2026-05-07 19:08 | 49.68272 | -3.55335 | 31983 ft | 426 kts | 197° |
| 2026-05-07 19:09 | 49.62572 | -3.57867 | 31986 ft | 426 kts | 197° |
| 2026-05-07 19:09 | 49.56873 | -3.60383 | 31984 ft | 426 kts | 197° |
| 2026-05-07 19:10 | 49.51168 | -3.62890 | 31982 ft | 426 kts | 197° |
| 2026-05-07 19:10 | 49.45461 | -3.65390 | 31978 ft | 426 kts | 197° |
| 2026-05-07 19:11 | 49.39760 | -3.67881 | 31983 ft | 426 kts | 197° |
| 2026-05-07 19:11 | 49.34058 | -3.70367 | 31983 ft | 426 kts | 197° |
| 2026-05-07 19:12 | 49.28355 | -3.72847 | 31982 ft | 426 kts | 197° |
| 2026-05-07 19:12 | 49.22648 | -3.75324 | 31978 ft | 427 kts | 197° |
| 2026-05-07 19:13 | 49.16830 | -3.77843 | 31986 ft | 441 kts | 197° |
| 2026-05-07 19:13 | 49.10912 | -3.80398 | 31984 ft | 440 kts | 197° |
| 2026-05-07 19:14 | 49.08011 | -3.81646 | 31984 ft | 425 kts | 197° |
| 2026-05-07 19:14 | 49.05185 | -3.82861 | 31987 ft | 421 kts | 197° |
| 2026-05-07 19:14 | 48.99480 | -3.85314 | 32275 ft | 428 kts | 197° |
| 2026-05-07 19:15 | 48.96609 | -3.86546 | 32591 ft | 428 kts | 197° |
| 2026-05-07 19:15 | 48.93753 | -3.87769 | 33060 ft | 423 kts | 197° |
| 2026-05-07 19:15 | 48.90975 | -3.88955 | 33995 ft | 407 kts | 197° |
| 2026-05-07 19:15 | 48.88247 | -3.90120 | 34230 ft | 409 kts | 197° |
| 2026-05-07 19:16 | 48.82729 | -3.92478 | 34568 ft | 411 kts | 197° |
| 2026-05-07 19:16 | 48.79943 | -3.93494 | 34707 ft | 415 kts | 189° |
| 2026-05-07 19:16 | 48.77076 | -3.93599 | 34739 ft | 422 kts | 180° |
| 2026-05-07 19:17 | 48.71153 | -3.93313 | 34827 ft | 430 kts | 181° |
| 2026-05-07 19:17 | 48.65109 | -3.93057 | 34901 ft | 439 kts | 181° |
| 2026-05-07 19:18 | 48.58948 | -3.92803 | 34976 ft | 447 kts | 181° |
| 2026-05-07 19:18 | 48.52680 | -3.92535 | 35023 ft | 454 kts | 181° |
| 2026-05-07 19:19 | 48.46329 | -3.92264 | 35090 ft | 458 kts | 181° |
| 2026-05-07 19:19 | 48.39940 | -3.91995 | 35222 ft | 460 kts | 181° |
| 2026-05-07 19:20 | 48.33530 | -3.91718 | 35324 ft | 462 kts | 181° |
| 2026-05-07 19:20 | 48.27102 | -3.91519 | 35481 ft | 460 kts | 186° |
| 2026-05-07 19:21 | 48.20859 | -3.93302 | 35607 ft | 457 kts | 197° |
| 2026-05-07 19:21 | 48.14748 | -3.95703 | 35736 ft | 457 kts | 197° |
| 2026-05-07 19:22 | 48.08567 | -3.98096 | 35835 ft | 459 kts | 197° |
| 2026-05-07 19:22 | 48.02382 | -4.00488 | 35977 ft | 459 kts | 197° |
| 2026-05-07 19:23 | 47.96272 | -4.02844 | 35993 ft | 451 kts | 197° |
| 2026-05-07 19:23 | 47.90146 | -4.05190 | 35996 ft | 457 kts | 197° |
| 2026-05-07 19:24 | 47.84159 | -4.08269 | 36007 ft | 456 kts | 209° |
| 2026-05-07 19:24 | 47.78498 | -4.12548 | 35992 ft | 456 kts | 209° |
| 2026-05-07 19:25 | 47.72841 | -4.16816 | 35999 ft | 456 kts | 209° |
| 2026-05-07 19:25 | 47.67162 | -4.21073 | 35991 ft | 457 kts | 209° |
| 2026-05-07 19:26 | 47.61476 | -4.25319 | 35987 ft | 457 kts | 209° |
| 2026-05-07 19:26 | 47.55827 | -4.29529 | 35990 ft | 457 kts | 209° |
| 2026-05-07 19:27 | 47.49992 | -4.33294 | 35990 ft | 461 kts | 200° |
| 2026-05-07 19:27 | 47.43830 | -4.36024 | 35993 ft | 462 kts | 199° |
| 2026-05-07 19:28 | 47.37669 | -4.38749 | 35991 ft | 462 kts | 199° |
| 2026-05-07 19:28 | 47.31514 | -4.41479 | 35991 ft | 462 kts | 199° |
| 2026-05-07 19:29 | 47.25346 | -4.44209 | 35991 ft | 463 kts | 199° |
| 2026-05-07 19:29 | 47.19171 | -4.46934 | 35990 ft | 463 kts | 199° |
| 2026-05-07 19:30 | 47.13003 | -4.49648 | 35986 ft | 463 kts | 199° |
| 2026-05-07 19:30 | 47.06830 | -4.52359 | 35984 ft | 464 kts | 199° |
| 2026-05-07 19:31 | 47.00637 | -4.55073 | 35991 ft | 464 kts | 199° |
| 2026-05-07 19:31 | 46.94493 | -4.57757 | 35988 ft | 464 kts | 199° |
| 2026-05-07 19:32 | 46.88301 | -4.60456 | 35988 ft | 464 kts | 199° |
| 2026-05-07 19:32 | 46.82104 | -4.63152 | 35984 ft | 465 kts | 199° |
| 2026-05-07 19:33 | 46.75900 | -4.65844 | 35981 ft | 465 kts | 199° |
| 2026-05-07 19:33 | 46.69705 | -4.68525 | 35982 ft | 465 kts | 199° |
| 2026-05-07 19:34 | 46.63501 | -4.71204 | 35981 ft | 465 kts | 199° |
| 2026-05-07 19:34 | 46.58347 | -4.73424 | 35983 ft | 465 kts | 199° |
| 2026-05-07 19:35 | 46.52140 | -4.76093 | 35985 ft | 465 kts | 199° |
| 2026-05-07 19:35 | 46.45929 | -4.78756 | 35972 ft | 465 kts | 199° |
| 2026-05-07 19:36 | 46.39716 | -4.81415 | 35979 ft | 466 kts | 199° |
| 2026-05-07 19:36 | 46.33513 | -4.84060 | 35974 ft | 464 kts | 199° |
| 2026-05-07 19:37 | 46.27313 | -4.86702 | 35974 ft | 464 kts | 199° |
| 2026-05-07 19:37 | 46.21111 | -4.89337 | 35971 ft | 465 kts | 199° |
| 2026-05-07 19:38 | 46.14940 | -4.91952 | 35974 ft | 465 kts | 199° |
| 2026-05-07 19:38 | 46.08737 | -4.94575 | 35969 ft | 465 kts | 199° |
| 2026-05-07 19:39 | 46.02526 | -4.97195 | 35968 ft | 465 kts | 199° |
| 2026-05-07 19:39 | 45.96314 | -4.99810 | 35966 ft | 465 kts | 199° |
| 2026-05-07 19:40 | 45.90094 | -5.02421 | 35966 ft | 465 kts | 199° |
| 2026-05-07 19:40 | 45.83880 | -5.05025 | 35961 ft | 465 kts | 199° |
| 2026-05-07 19:41 | 45.77658 | -5.07625 | 35963 ft | 465 kts | 199° |
| 2026-05-07 19:41 | 45.71442 | -5.10217 | 35960 ft | 466 kts | 200° |
| 2026-05-07 19:42 | 45.65217 | -5.12806 | 35949 ft | 466 kts | 200° |
| 2026-05-07 19:42 | 45.58976 | -5.15397 | 35958 ft | 467 kts | 200° |
| 2026-05-07 19:43 | 45.52738 | -5.17980 | 35955 ft | 467 kts | 200° |
| 2026-05-07 19:43 | 45.46501 | -5.20557 | 35952 ft | 467 kts | 200° |
| 2026-05-07 19:44 | 45.40298 | -5.23113 | 35947 ft | 467 kts | 200° |
| 2026-05-07 19:44 | 45.34053 | -5.25681 | 35947 ft | 467 kts | 200° |
| 2026-05-07 19:45 | 45.27800 | -5.28247 | 35950 ft | 467 kts | 200° |
| 2026-05-07 19:45 | 45.21538 | -5.30810 | 35947 ft | 469 kts | 200° |
| 2026-05-07 19:46 | 45.15275 | -5.33367 | 35944 ft | 468 kts | 200° |
| 2026-05-07 19:46 | 45.09013 | -5.35919 | 35942 ft | 468 kts | 200° |
| 2026-05-07 19:47 | 45.02734 | -5.38470 | 35938 ft | 470 kts | 200° |
| 2026-05-07 19:47 | 44.96435 | -5.41025 | 35938 ft | 470 kts | 200° |
| 2026-05-07 19:48 | 44.90180 | -5.43557 | 35936 ft | 471 kts | 200° |
| 2026-05-07 19:48 | 44.83881 | -5.46099 | 35935 ft | 471 kts | 200° |
| 2026-05-07 19:49 | 44.77580 | -5.48638 | 35938 ft | 471 kts | 200° |
| 2026-05-07 19:49 | 44.71271 | -5.51174 | 35935 ft | 471 kts | 200° |
| 2026-05-07 19:50 | 44.64965 | -5.53705 | 35927 ft | 471 kts | 200° |
| 2026-05-07 19:50 | 44.58777 | -5.56613 | 35927 ft | 466 kts | 208° |
| 2026-05-07 19:51 | 44.52855 | -5.60297 | 35927 ft | 466 kts | 208° |
| 2026-05-07 19:51 | 44.46927 | -5.63977 | 35915 ft | 466 kts | 208° |
| 2026-05-07 19:52 | 44.40993 | -5.67638 | 35924 ft | 466 kts | 208° |
| 2026-05-07 19:52 | 44.35056 | -5.71289 | 35913 ft | 466 kts | 208° |
| 2026-05-07 19:53 | 44.29184 | -5.74889 | 35919 ft | 464 kts | 208° |
| 2026-05-07 19:53 | 44.23276 | -5.78505 | 35916 ft | 463 kts | 208° |
| 2026-05-07 19:54 | 44.17371 | -5.82111 | 35910 ft | 463 kts | 208° |
| 2026-05-07 19:54 | 44.11467 | -5.85708 | 35908 ft | 463 kts | 208° |
| 2026-05-07 19:55 | 44.05557 | -5.89301 | 35908 ft | 463 kts | 208° |
| 2026-05-07 19:55 | 43.99655 | -5.92881 | 35910 ft | 463 kts | 208° |
| 2026-05-07 19:56 | 43.93749 | -5.96456 | 35904 ft | 463 kts | 208° |
| 2026-05-07 19:56 | 43.87878 | -6.00002 | 35897 ft | 463 kts | 208° |
| 2026-05-07 19:57 | 43.81978 | -6.03557 | 35900 ft | 463 kts | 208° |
| 2026-05-07 19:57 | 43.76071 | -6.07110 | 35899 ft | 463 kts | 208° |
| 2026-05-07 19:58 | 43.70178 | -6.10644 | 35898 ft | 459 kts | 209° |
| 2026-05-07 19:58 | 43.64329 | -6.14145 | 35898 ft | 457 kts | 209° |
| 2026-05-07 19:59 | 43.58491 | -6.17635 | 35907 ft | 457 kts | 209° |
| 2026-05-07 19:59 | 43.52651 | -6.21118 | 35910 ft | 457 kts | 209° |
| 2026-05-07 20:00 | 43.46810 | -6.24592 | 35906 ft | 458 kts | 209° |
| 2026-05-07 20:00 | 43.40993 | -6.28043 | 35906 ft | 453 kts | 209° |
| 2026-05-07 20:01 | 43.35202 | -6.31477 | 35902 ft | 454 kts | 209° |
| 2026-05-07 20:01 | 43.29449 | -6.34881 | 35898 ft | 452 kts | 209° |
| 2026-05-07 20:02 | 43.23657 | -6.38295 | 35899 ft | 451 kts | 209° |
| 2026-05-07 20:02 | 43.17916 | -6.41672 | 35906 ft | 449 kts | 209° |
| 2026-05-07 20:03 | 43.12168 | -6.45054 | 35907 ft | 449 kts | 209° |
| 2026-05-07 20:03 | 43.06441 | -6.48412 | 35911 ft | 445 kts | 209° |
| 2026-05-07 20:04 | 43.00753 | -6.51741 | 35904 ft | 444 kts | 209° |
| 2026-05-07 20:04 | 42.95069 | -6.55063 | 35903 ft | 444 kts | 209° |
| 2026-05-07 20:05 | 42.89388 | -6.58373 | 35904 ft | 444 kts | 209° |
| 2026-05-07 20:05 | 42.83698 | -6.61681 | 35903 ft | 445 kts | 209° |
| 2026-05-07 20:06 | 42.78012 | -6.64981 | 35908 ft | 444 kts | 209° |
| 2026-05-07 20:06 | 42.72319 | -6.68280 | 35904 ft | 444 kts | 209° |
| 2026-05-07 20:07 | 42.66667 | -6.71549 | 35908 ft | 444 kts | 209° |
| 2026-05-07 20:07 | 42.60976 | -6.74835 | 35906 ft | 445 kts | 209° |
| 2026-05-07 20:08 | 42.55284 | -6.78112 | 35904 ft | 444 kts | 209° |
| 2026-05-07 20:08 | 42.49591 | -6.81389 | 35906 ft | 445 kts | 209° |
| 2026-05-07 20:09 | 42.43899 | -6.84659 | 35915 ft | 444 kts | 208° |
| 2026-05-07 20:10 | 42.35380 | -6.89535 | 35905 ft | 442 kts | 208° |
| 2026-05-07 20:10 | 42.29710 | -6.92772 | 35908 ft | 442 kts | 208° |
| 2026-05-07 20:11 | 42.24045 | -6.95999 | 35909 ft | 442 kts | 208° |
| 2026-05-07 20:11 | 42.18374 | -6.99224 | 35898 ft | 441 kts | 208° |
| 2026-05-07 20:12 | 42.12725 | -7.02429 | 35904 ft | 440 kts | 208° |
| 2026-05-07 20:12 | 42.07080 | -7.05626 | 35907 ft | 440 kts | 208° |
| 2026-05-07 20:13 | 42.01428 | -7.08821 | 35900 ft | 440 kts | 208° |
| 2026-05-07 20:13 | 41.95817 | -7.11987 | 35911 ft | 437 kts | 208° |
| 2026-05-07 20:14 | 41.90218 | -7.15139 | 35912 ft | 437 kts | 208° |
| 2026-05-07 20:14 | 41.84615 | -7.18290 | 35909 ft | 437 kts | 208° |
| 2026-05-07 20:15 | 41.78997 | -7.21430 | 35905 ft | 437 kts | 207° |
| 2026-05-07 20:15 | 41.73204 | -7.23818 | 35898 ft | 434 kts | 198° |
| 2026-05-07 20:16 | 41.67188 | -7.25085 | 35899 ft | 440 kts | 193° |
| 2026-05-07 20:16 | 41.61125 | -7.26160 | 35893 ft | 439 kts | 193° |
| 2026-05-07 20:17 | 41.55102 | -7.27248 | 35895 ft | 439 kts | 194° |
| 2026-05-07 20:17 | 41.49053 | -7.28339 | 35895 ft | 438 kts | 194° |
| 2026-05-07 20:18 | 41.43008 | -7.29431 | 35900 ft | 438 kts | 194° |
| 2026-05-07 20:18 | 41.36959 | -7.30520 | 35899 ft | 438 kts | 194° |
| 2026-05-07 20:19 | 41.30917 | -7.31606 | 35905 ft | 438 kts | 193° |
| 2026-05-07 20:19 | 41.24874 | -7.32689 | 35902 ft | 438 kts | 194° |
| 2026-05-07 20:20 | 41.18829 | -7.33770 | 35908 ft | 438 kts | 193° |
| 2026-05-07 20:20 | 41.12789 | -7.34850 | 35909 ft | 438 kts | 193° |
| 2026-05-07 20:21 | 41.06770 | -7.35921 | 35908 ft | 434 kts | 193° |
| 2026-05-07 20:21 | 41.00772 | -7.36991 | 35908 ft | 435 kts | 193° |
| 2026-05-07 20:22 | 40.94769 | -7.38059 | 35913 ft | 435 kts | 193° |
| 2026-05-07 20:22 | 40.89779 | -7.38945 | 35917 ft | 435 kts | 193° |
| 2026-05-07 20:23 | 40.83784 | -7.40006 | 35912 ft | 434 kts | 194° |
| 2026-05-07 20:23 | 40.77794 | -7.41064 | 35913 ft | 434 kts | 194° |
| 2026-05-07 20:24 | 40.71809 | -7.42122 | 35914 ft | 435 kts | 194° |
| 2026-05-07 20:24 | 40.65815 | -7.43177 | 35898 ft | 434 kts | 194° |
| 2026-05-07 20:25 | 40.59834 | -7.44228 | 35917 ft | 433 kts | 193° |
| 2026-05-07 20:25 | 40.53847 | -7.45279 | 35922 ft | 434 kts | 194° |
| 2026-05-07 20:26 | 40.47870 | -7.46327 | 35919 ft | 434 kts | 193° |
| 2026-05-07 20:26 | 40.41890 | -7.47372 | 35919 ft | 434 kts | 193° |
| 2026-05-07 20:27 | 40.35905 | -7.48417 | 35918 ft | 434 kts | 194° |
| 2026-05-07 20:27 | 40.29930 | -7.49458 | 35915 ft | 433 kts | 193° |
| 2026-05-07 20:28 | 40.23950 | -7.50498 | 35915 ft | 433 kts | 193° |
| 2026-05-07 20:28 | 40.17989 | -7.51533 | 35919 ft | 431 kts | 193° |
| 2026-05-07 20:29 | 40.12037 | -7.52565 | 35917 ft | 432 kts | 193° |
| 2026-05-07 20:29 | 40.06083 | -7.53596 | 35919 ft | 432 kts | 193° |
| 2026-05-07 20:30 | 40.00124 | -7.54625 | 35900 ft | 431 kts | 193° |
| 2026-05-07 20:30 | 39.94208 | -7.55643 | 35909 ft | 428 kts | 193° |
| 2026-05-07 20:31 | 39.88331 | -7.56657 | 35918 ft | 429 kts | 193° |
| 2026-05-07 20:31 | 39.82381 | -7.57679 | 35906 ft | 429 kts | 193° |
| 2026-05-07 20:32 | 39.76502 | -7.58688 | 35898 ft | 428 kts | 193° |
| 2026-05-07 20:32 | 39.70607 | -7.59697 | 35915 ft | 428 kts | 193° |
| 2026-05-07 20:33 | 39.64721 | -7.60704 | 35916 ft | 426 kts | 193° |
| 2026-05-07 20:33 | 39.58840 | -7.61707 | 35924 ft | 425 kts | 193° |
| 2026-05-07 20:34 | 39.52973 | -7.62707 | 35914 ft | 424 kts | 193° |
| 2026-05-07 20:34 | 39.47116 | -7.63703 | 35916 ft | 425 kts | 193° |
| 2026-05-07 20:35 | 39.41257 | -7.64698 | 35922 ft | 424 kts | 193° |
| 2026-05-07 20:35 | 39.35334 | -7.65228 | 35922 ft | 430 kts | 185° |
| 2026-05-07 20:36 | 39.29361 | -7.65202 | 35920 ft | 429 kts | 186° |
| 2026-05-07 20:36 | 39.23390 | -7.65195 | 35926 ft | 429 kts | 186° |
| 2026-05-07 20:37 | 39.17464 | -7.65195 | 35924 ft | 429 kts | 186° |
| 2026-05-07 20:37 | 39.11496 | -7.65196 | 35927 ft | 429 kts | 186° |
| 2026-05-07 20:38 | 39.05491 | -7.65195 | 35932 ft | 429 kts | 186° |
| 2026-05-07 20:38 | 38.99562 | -7.65073 | 35929 ft | 430 kts | 184° |
| 2026-05-07 20:39 | 38.93577 | -7.64790 | 35926 ft | 430 kts | 184° |
| 2026-05-07 20:39 | 38.87598 | -7.64534 | 35928 ft | 430 kts | 184° |
| 2026-05-07 20:40 | 38.81638 | -7.64295 | 35930 ft | 428 kts | 184° |
| 2026-05-07 20:40 | 38.75677 | -7.64060 | 35929 ft | 428 kts | 184° |
| 2026-05-07 20:41 | 38.69721 | -7.63825 | 35928 ft | 428 kts | 184° |
| 2026-05-07 20:41 | 38.63766 | -7.63592 | 35901 ft | 428 kts | 184° |
| 2026-05-07 20:42 | 38.57793 | -7.63358 | 35929 ft | 429 kts | 184° |
| 2026-05-07 20:42 | 38.51836 | -7.63125 | 35929 ft | 428 kts | 184° |
| 2026-05-07 20:42 | 38.48876 | -7.63007 | 35814 ft | 423 kts | 184° |
| 2026-05-07 20:43 | 38.45942 | -7.62890 | 35331 ft | 421 kts | 184° |
| 2026-05-07 20:43 | 38.43014 | -7.62776 | 34608 ft | 422 kts | 184° |
| 2026-05-07 20:43 | 38.40071 | -7.62664 | 33748 ft | 424 kts | 184° |
| 2026-05-07 20:43 | 38.37113 | -7.62552 | 32754 ft | 427 kts | 184° |
| 2026-05-07 20:44 | 38.34122 | -7.62440 | 31687 ft | 432 kts | 183° |
| 2026-05-07 20:44 | 38.31093 | -7.62326 | 30637 ft | 437 kts | 182° |
| 2026-05-07 20:44 | 38.28038 | -7.62211 | 29495 ft | 442 kts | 182° |
| 2026-05-07 20:44 | 38.24950 | -7.62092 | 28546 ft | 442 kts | 182° |
| 2026-05-07 20:45 | 38.21935 | -7.61971 | 27871 ft | 437 kts | 181° |
| 2026-05-07 20:45 | 38.18901 | -7.61851 | 27160 ft | 433 kts | 181° |
| 2026-05-07 20:45 | 38.15907 | -7.61734 | 26486 ft | 429 kts | 181° |
| 2026-05-07 20:45 | 38.12942 | -7.61618 | 25894 ft | 423 kts | 181° |
| 2026-05-07 20:46 | 38.10014 | -7.61504 | 25303 ft | 418 kts | 181° |
| 2026-05-07 20:46 | 38.07121 | -7.61408 | 24686 ft | 414 kts | 182° |
| 2026-05-07 20:46 | 38.04258 | -7.61398 | 24082 ft | 410 kts | 183° |
| 2026-05-07 20:46 | 38.01418 | -7.61420 | 23488 ft | 407 kts | 183° |
| 2026-05-07 20:47 | 37.98610 | -7.61442 | 22898 ft | 401 kts | 183° |
| 2026-05-07 20:47 | 37.95833 | -7.61455 | 22325 ft | 396 kts | 183° |
| 2026-05-07 20:47 | 37.93099 | -7.61461 | 21745 ft | 390 kts | 183° |
| 2026-05-07 20:47 | 37.90401 | -7.61464 | 21185 ft | 386 kts | 183° |
| 2026-05-07 20:48 | 37.87735 | -7.61465 | 20624 ft | 381 kts | 183° |
| 2026-05-07 20:48 | 37.85098 | -7.61466 | 20061 ft | 377 kts | 183° |
| 2026-05-07 20:48 | 37.82485 | -7.61467 | 19508 ft | 373 kts | 183° |
| 2026-05-07 20:48 | 37.79901 | -7.61468 | 18934 ft | 370 kts | 183° |
| 2026-05-07 20:49 | 37.77342 | -7.61468 | 18363 ft | 367 kts | 183° |
| 2026-05-07 20:49 | 37.74798 | -7.61469 | 17809 ft | 362 kts | 183° |
| 2026-05-07 20:49 | 37.72295 | -7.61471 | 17274 ft | 357 kts | 183° |
| 2026-05-07 20:49 | 37.69831 | -7.61472 | 16739 ft | 352 kts | 182° |
| 2026-05-07 20:50 | 37.67397 | -7.61474 | 16227 ft | 347 kts | 182° |
| 2026-05-07 20:50 | 37.64999 | -7.61475 | 15721 ft | 343 kts | 182° |
| 2026-05-07 20:50 | 37.62622 | -7.61477 | 15215 ft | 339 kts | 182° |
| 2026-05-07 20:50 | 37.60276 | -7.61478 | 14717 ft | 336 kts | 181° |
| 2026-05-07 20:51 | 37.57942 | -7.61479 | 14229 ft | 333 kts | 181° |
| 2026-05-07 20:51 | 37.55631 | -7.61481 | 13743 ft | 331 kts | 181° |
| 2026-05-07 20:51 | 37.53336 | -7.61482 | 13230 ft | 328 kts | 181° |
| 2026-05-07 20:51 | 37.51069 | -7.61482 | 12755 ft | 324 kts | 181° |
| 2026-05-07 20:52 | 37.48825 | -7.61483 | 12286 ft | 321 kts | 180° |
| 2026-05-07 20:52 | 37.46600 | -7.61483 | 11809 ft | 318 kts | 180° |
| 2026-05-07 20:52 | 37.44400 | -7.61483 | 11357 ft | 315 kts | 180° |
| 2026-05-07 20:52 | 37.42218 | -7.61483 | 10901 ft | 313 kts | 180° |
| 2026-05-07 20:53 | 37.40048 | -7.61484 | 10449 ft | 311 kts | 180° |
| 2026-05-07 20:53 | 37.37910 | -7.61485 | 10216 ft | 301 kts | 180° |
| 2026-05-07 20:53 | 37.35862 | -7.61484 | 10099 ft | 288 kts | 180° |
| 2026-05-07 20:53 | 37.33890 | -7.61485 | 9879 ft | 280 kts | 180° |
| 2026-05-07 20:54 | 37.31972 | -7.61485 | 9700 ft | 271 kts | 180° |
| 2026-05-07 20:54 | 37.30075 | -7.61487 | 9498 ft | 275 kts | 180° |
| 2026-05-07 20:54 | 37.28145 | -7.61491 | 9135 ft | 279 kts | 180° |
| 2026-05-07 20:54 | 37.26210 | -7.61491 | 8763 ft | 277 kts | 179° |
| 2026-05-07 20:55 | 37.24284 | -7.61491 | 8409 ft | 274 kts | 179° |
| 2026-05-07 20:55 | 37.22379 | -7.61491 | 8037 ft | 272 kts | 179° |
| 2026-05-07 20:55 | 37.20523 | -7.61494 | 7683 ft | 270 kts | 178° |
| 2026-05-07 20:55 | 37.18650 | -7.61496 | 7327 ft | 268 kts | 178° |
| 2026-05-07 20:56 | 37.16793 | -7.61498 | 6972 ft | 266 kts | 177° |
| 2026-05-07 20:56 | 37.14950 | -7.61498 | 6622 ft | 264 kts | 177° |
| 2026-05-07 20:56 | 37.13121 | -7.61499 | 6275 ft | 262 kts | 176° |
| 2026-05-07 20:56 | 37.11306 | -7.61498 | 5919 ft | 260 kts | 177° |
| 2026-05-07 20:57 | 37.09505 | -7.61505 | 5577 ft | 258 kts | 180° |
| 2026-05-07 20:57 | 37.07738 | -7.61852 | 5233 ft | 258 kts | 193° |
| 2026-05-07 20:57 | 37.06070 | -7.62673 | 4902 ft | 257 kts | 203° |
| 2026-05-07 20:57 | 37.04444 | -7.63583 | 4556 ft | 255 kts | 202° |
| 2026-05-07 20:58 | 37.02824 | -7.64474 | 4218 ft | 253 kts | 203° |
| 2026-05-07 20:58 | 37.01223 | -7.65349 | 3994 ft | 253 kts | 204° |
| 2026-05-07 20:58 | 36.99612 | -7.66232 | 3938 ft | 247 kts | 204° |
| 2026-05-07 20:58 | 36.98241 | -7.67334 | 3930 ft | 229 kts | 230° |
| 2026-05-07 20:59 | 36.97573 | -7.69015 | 3935 ft | 208 kts | 264° |
| 2026-05-07 20:59 | 36.97695 | -7.70715 | 3930 ft | 189 kts | 283° |
| 2026-05-07 20:59 | 36.97968 | -7.72330 | 3879 ft | 197 kts | 282° |
| 2026-05-07 20:59 | 36.98225 | -7.74004 | 3676 ft | 193 kts | 281° |
| 2026-05-07 21:00 | 36.98457 | -7.75634 | 3385 ft | 187 kts | 282° |
| 2026-05-07 21:00 | 36.98683 | -7.77211 | 3107 ft | 181 kts | 282° |
| 2026-05-07 21:00 | 36.98898 | -7.78722 | 2864 ft | 171 kts | 282° |
| 2026-05-07 21:00 | 36.99097 | -7.80128 | 2621 ft | 156 kts | 283° |
| 2026-05-07 21:01 | 36.99277 | -7.81390 | 2437 ft | 139 kts | 284° |
| 2026-05-07 21:01 | 36.99441 | -7.82536 | 2256 ft | 134 kts | 284° |
| 2026-05-07 21:01 | 36.99604 | -7.83673 | 2077 ft | 131 kts | 284° |
| 2026-05-07 21:01 | 36.99761 | -7.84777 | 1901 ft | 129 kts | 285° |
| 2026-05-07 21:02 | 36.99921 | -7.85890 | 1734 ft | 132 kts | 285° |
| 2026-05-07 21:02 | 37.00081 | -7.87014 | 1553 ft | 131 kts | 286° |
| 2026-05-07 21:02 | 37.00238 | -7.88120 | 1377 ft | 126 kts | 284° |
| 2026-05-07 21:02 | 37.00387 | -7.89199 | 1230 ft | 127 kts | 284° |
| 2026-05-07 21:03 | 37.00550 | -7.90329 | 1069 ft | 136 kts | 283° |
| 2026-05-07 21:03 | 37.00734 | -7.91470 | 828 ft | 126 kts | 282° |
| 2026-05-07 21:03 | 37.00888 | -7.92569 | 664 ft | 131 kts | 279° |
| 2026-05-07 21:03 | 37.01029 | -7.93646 | 455 ft | 121 kts | 281° |
| 2026-05-07 21:04 | 37.01179 | -7.94723 | 265 ft | 122 kts | 280° |
| 2026-05-07 21:04 | 37.01338 | -7.95764 | 95 ft | 124 kts | 276° |
| 2026-05-07 21:04 | 37.01476 | -7.96822 | 22 ft | 116 kts | 279° |
| 2026-05-07 21:04 | 37.01601 | -7.97705 | 20 ft | 81 kts | 280° |
| 2026-05-07 21:05 | 37.01650 | -7.97982 | 23 ft | 27 kts | 295° |
| 2026-05-07 21:05 | 37.01753 | -7.98176 | 21 ft | 27 kts | 316° |
| 2026-05-07 21:05 | 37.01774 | -7.98214 | 21 ft | 0 kts | 316° |
| 2026-05-07 21:06 | 37.01795 | -7.98229 | 21 ft | 8 kts | 338° |
| 2026-05-07 21:06 | 37.01849 | -7.98175 | 20 ft | 16 kts | 83° |
| 2026-05-07 21:06 | 37.01831 | -7.98015 | 20 ft | 22 kts | 98° |
| 2026-05-07 21:06 | 37.01800 | -7.97797 | 22 ft | 22 kts | 99° |
| 2026-05-07 21:07 | 37.01770 | -7.97574 | 20 ft | 30 kts | 100° |
| 2026-05-07 21:07 | 37.01742 | -7.97384 | 22 ft | 2 kts | 99° |
| 2026-05-07 21:07 | 37.01735 | -7.97332 | 20 ft | 10 kts | 99° |
| 2026-05-07 21:07 | 37.01717 | -7.97202 | 20 ft | 19 kts | 100° |
| 2026-05-07 21:08 | 37.01691 | -7.97032 | 20 ft | 19 kts | 100° |
| 2026-05-07 21:08 | 37.01665 | -7.96850 | 20 ft | 25 kts | 100° |
| 2026-05-07 21:08 | 37.01640 | -7.96673 | 22 ft | 17 kts | 99° |
| 2026-05-07 21:08 | 37.01654 | -7.96548 | 21 ft | 16 kts | 30° |
| 2026-05-07 21:09 | 37.01758 | -7.96511 | 20 ft | 15 kts | 22° |
| 2026-05-07 21:09 | 37.01822 | -7.96465 | 21 ft | 14 kts | 23° |
| 2026-05-07 21:09 | 37.01861 | -7.96454 | 20 ft | 0 kts | 11° |